sensor_id;sensor_type;location;lat;lon;timestamp;P1;durP1;ratioP1;P2;durP2;ratioP2
74074;SDS011;62428;51.412;5.432;2022-08-19T00:01:33;21.33;;;17.33;;
74074;SDS011;62428;51.412;5.432;2022-08-19T00:04:00;20.52;;;16.80;;
74074;SDS011;62428;51.412;5.432;2022-08-19T00:06:28;19.90;;;17.60;;
74074;SDS011;62428;51.412;5.432;2022-08-19T00:08:55;21.42;;;17.83;;
74074;SDS011;62428;51.412;5.432;2022-08-19T00:11:21;22.88;;;17.95;;
74074;SDS011;62428;51.412;5.432;2022-08-19T00:13:47;23.20;;;18.03;;
74074;SDS011;62428;51.412;5.432;2022-08-19T00:16:15;22.27;;;17.55;;
74074;SDS011;62428;51.412;5.432;2022-08-19T00:18:42;22.60;;;17.73;;
74074;SDS011;62428;51.412;5.432;2022-08-19T00:21:07;23.48;;;18.42;;
74074;SDS011;62428;51.412;5.432;2022-08-19T00:23:33;21.80;;;17.87;;
74074;SDS011;62428;51.412;5.432;2022-08-19T00:26:01;25.80;;;18.98;;
74074;SDS011;62428;51.412;5.432;2022-08-19T00:28:27;24.15;;;19.00;;
74074;SDS011;62428;51.412;5.432;2022-08-19T00:30:53;25.20;;;19.47;;
74074;SDS011;62428;51.412;5.432;2022-08-19T00:33:18;23.40;;;19.60;;
74074;SDS011;62428;51.412;5.432;2022-08-19T00:35:44;26.88;;;20.73;;
74074;SDS011;62428;51.412;5.432;2022-08-19T00:38:09;26.50;;;20.27;;
74074;SDS011;62428;51.412;5.432;2022-08-19T00:40:35;23.70;;;19.20;;
74074;SDS011;62428;51.412;5.432;2022-08-19T00:43:00;26.20;;;20.23;;
74074;SDS011;62428;51.412;5.432;2022-08-19T00:45:26;27.80;;;20.63;;
74074;SDS011;62428;51.412;5.432;2022-08-19T00:47:55;23.97;;;19.80;;
74074;SDS011;62428;51.412;5.432;2022-08-19T00:50:21;27.42;;;20.60;;
74074;SDS011;62428;51.412;5.432;2022-08-19T00:52:48;30.27;;;20.97;;
74074;SDS011;62428;51.412;5.432;2022-08-19T00:55:16;29.58;;;22.10;;
74074;SDS011;62428;51.412;5.432;2022-08-19T00:57:46;31.98;;;22.88;;
74074;SDS011;62428;51.412;5.432;2022-08-19T01:00:16;29.90;;;22.23;;
74074;SDS011;62428;51.412;5.432;2022-08-19T01:02:43;32.10;;;22.55;;
74074;SDS011;62428;51.412;5.432;2022-08-19T01:05:11;24.17;;;20.57;;
74074;SDS011;62428;51.412;5.432;2022-08-19T01:07:40;27.52;;;21.02;;
74074;SDS011;62428;51.412;5.432;2022-08-19T01:10:08;26.50;;;20.48;;
74074;SDS011;62428;51.412;5.432;2022-08-19T01:12:36;28.85;;;21.00;;
74074;SDS011;62428;51.412;5.432;2022-08-19T01:15:03;25.60;;;20.30;;
74074;SDS011;62428;51.412;5.432;2022-08-19T01:17:30;27.60;;;19.80;;
74074;SDS011;62428;51.412;5.432;2022-08-19T01:19:56;28.20;;;20.02;;
74074;SDS011;62428;51.412;5.432;2022-08-19T01:22:39;24.70;;;19.13;;
74074;SDS011;62428;51.412;5.432;2022-08-19T01:25:09;25.85;;;19.40;;
74074;SDS011;62428;51.412;5.432;2022-08-19T01:27:39;28.42;;;19.83;;
74074;SDS011;62428;51.412;5.432;2022-08-19T01:30:06;26.50;;;18.87;;
74074;SDS011;62428;51.412;5.432;2022-08-19T01:32:33;26.23;;;19.08;;
74074;SDS011;62428;51.412;5.432;2022-08-19T01:34:58;29.10;;;19.97;;
74074;SDS011;62428;51.412;5.432;2022-08-19T01:37:26;31.10;;;19.35;;
74074;SDS011;62428;51.412;5.432;2022-08-19T01:39:51;27.17;;;19.30;;
74074;SDS011;62428;51.412;5.432;2022-08-19T01:42:17;27.02;;;18.90;;
74074;SDS011;62428;51.412;5.432;2022-08-19T01:44:43;26.70;;;18.50;;
74074;SDS011;62428;51.412;5.432;2022-08-19T01:47:08;30.87;;;18.73;;
74074;SDS011;62428;51.412;5.432;2022-08-19T01:49:35;28.27;;;19.30;;
74074;SDS011;62428;51.412;5.432;2022-08-19T01:52:02;27.65;;;19.75;;
74074;SDS011;62428;51.412;5.432;2022-08-19T01:54:29;27.57;;;18.93;;
74074;SDS011;62428;51.412;5.432;2022-08-19T01:57:02;27.10;;;18.98;;
74074;SDS011;62428;51.412;5.432;2022-08-19T01:59:32;26.67;;;19.13;;
74074;SDS011;62428;51.412;5.432;2022-08-19T02:01:58;29.55;;;21.05;;
74074;SDS011;62428;51.412;5.432;2022-08-19T02:04:23;35.60;;;21.43;;
74074;SDS011;62428;51.412;5.432;2022-08-19T02:06:50;34.20;;;22.98;;
74074;SDS011;62428;51.412;5.432;2022-08-19T02:09:15;32.37;;;22.77;;
74074;SDS011;62428;51.412;5.432;2022-08-19T02:11:41;35.88;;;22.17;;
74074;SDS011;62428;51.412;5.432;2022-08-19T02:14:07;29.50;;;20.87;;
74074;SDS011;62428;51.412;5.432;2022-08-19T02:16:32;31.88;;;21.70;;
74074;SDS011;62428;51.412;5.432;2022-08-19T02:18:58;32.90;;;21.38;;
74074;SDS011;62428;51.412;5.432;2022-08-19T02:21:25;26.97;;;21.00;;
74074;SDS011;62428;51.412;5.432;2022-08-19T02:23:52;31.63;;;21.00;;
74074;SDS011;62428;51.412;5.432;2022-08-19T02:26:17;29.50;;;20.80;;
74074;SDS011;62428;51.412;5.432;2022-08-19T02:28:43;31.42;;;21.70;;
74074;SDS011;62428;51.412;5.432;2022-08-19T02:31:12;28.80;;;21.13;;
74074;SDS011;62428;51.412;5.432;2022-08-19T02:33:45;30.73;;;21.17;;
74074;SDS011;62428;51.412;5.432;2022-08-19T02:36:12;30.35;;;20.67;;
74074;SDS011;62428;51.412;5.432;2022-08-19T02:38:38;28.33;;;21.40;;
74074;SDS011;62428;51.412;5.432;2022-08-19T02:41:06;29.50;;;20.03;;
74074;SDS011;62428;51.412;5.432;2022-08-19T02:43:35;29.42;;;20.48;;
74074;SDS011;62428;51.412;5.432;2022-08-19T02:46:02;30.15;;;21.13;;
74074;SDS011;62428;51.412;5.432;2022-08-19T02:48:36;30.15;;;20.60;;
74074;SDS011;62428;51.412;5.432;2022-08-19T02:51:02;30.90;;;19.20;;
74074;SDS011;62428;51.412;5.432;2022-08-19T02:53:27;33.50;;;21.23;;
74074;SDS011;62428;51.412;5.432;2022-08-19T02:55:53;35.20;;;21.58;;
74074;SDS011;62428;51.412;5.432;2022-08-19T02:58:19;30.42;;;21.05;;
74074;SDS011;62428;51.412;5.432;2022-08-19T03:00:51;31.67;;;21.13;;
74074;SDS011;62428;51.412;5.432;2022-08-19T03:03:18;30.73;;;19.92;;
74074;SDS011;62428;51.412;5.432;2022-08-19T03:05:44;30.30;;;20.02;;
74074;SDS011;62428;51.412;5.432;2022-08-19T03:08:10;32.05;;;20.15;;
74074;SDS011;62428;51.412;5.432;2022-08-19T03:10:46;30.25;;;21.63;;
74074;SDS011;62428;51.412;5.432;2022-08-19T03:13:16;31.57;;;21.53;;
74074;SDS011;62428;51.412;5.432;2022-08-19T03:15:43;34.08;;;22.75;;
74074;SDS011;62428;51.412;5.432;2022-08-19T03:18:11;39.83;;;24.42;;
74074;SDS011;62428;51.412;5.432;2022-08-19T03:20:42;34.60;;;23.55;;
74074;SDS011;62428;51.412;5.432;2022-08-19T03:23:09;34.20;;;23.45;;
74074;SDS011;62428;51.412;5.432;2022-08-19T03:25:39;38.90;;;24.70;;
74074;SDS011;62428;51.412;5.432;2022-08-19T03:28:08;35.42;;;25.35;;
74074;SDS011;62428;51.412;5.432;2022-08-19T03:30:34;39.80;;;26.88;;
74074;SDS011;62428;51.412;5.432;2022-08-19T03:32:59;41.87;;;26.57;;
74074;SDS011;62428;51.412;5.432;2022-08-19T03:35:25;38.73;;;27.87;;
74074;SDS011;62428;51.412;5.432;2022-08-19T03:37:51;41.47;;;27.37;;
74074;SDS011;62428;51.412;5.432;2022-08-19T03:40:17;42.20;;;26.90;;
74074;SDS011;62428;51.412;5.432;2022-08-19T03:42:43;41.75;;;26.65;;
74074;SDS011;62428;51.412;5.432;2022-08-19T03:45:10;37.07;;;25.67;;
74074;SDS011;62428;51.412;5.432;2022-08-19T03:47:36;40.33;;;25.73;;
74074;SDS011;62428;51.412;5.432;2022-08-19T03:50:02;37.00;;;26.35;;
74074;SDS011;62428;51.412;5.432;2022-08-19T03:52:28;40.80;;;26.35;;
74074;SDS011;62428;51.412;5.432;2022-08-19T03:54:53;42.80;;;27.67;;
74074;SDS011;62428;51.412;5.432;2022-08-19T03:57:19;44.30;;;28.03;;
74074;SDS011;62428;51.412;5.432;2022-08-19T03:59:44;41.13;;;27.77;;
74074;SDS011;62428;51.412;5.432;2022-08-19T04:02:10;44.23;;;27.87;;
74074;SDS011;62428;51.412;5.432;2022-08-19T04:04:41;45.83;;;28.58;;
74074;SDS011;62428;51.412;5.432;2022-08-19T04:07:08;52.10;;;28.80;;
74074;SDS011;62428;51.412;5.432;2022-08-19T04:09:34;47.92;;;28.65;;
74074;SDS011;62428;51.412;5.432;2022-08-19T04:12:01;42.17;;;26.45;;
74074;SDS011;62428;51.412;5.432;2022-08-19T04:14:30;44.47;;;28.70;;
74074;SDS011;62428;51.412;5.432;2022-08-19T04:16:56;43.70;;;28.20;;
74074;SDS011;62428;51.412;5.432;2022-08-19T04:19:23;44.95;;;27.85;;
74074;SDS011;62428;51.412;5.432;2022-08-19T04:21:50;49.97;;;28.53;;
74074;SDS011;62428;51.412;5.432;2022-08-19T04:24:17;46.10;;;28.43;;
74074;SDS011;62428;51.412;5.432;2022-08-19T04:26:44;50.72;;;29.13;;
74074;SDS011;62428;51.412;5.432;2022-08-19T04:29:12;49.08;;;29.17;;
74074;SDS011;62428;51.412;5.432;2022-08-19T04:31:39;52.38;;;30.50;;
74074;SDS011;62428;51.412;5.432;2022-08-19T04:34:06;50.63;;;31.02;;
74074;SDS011;62428;51.412;5.432;2022-08-19T04:36:34;51.93;;;30.90;;
74074;SDS011;62428;51.412;5.432;2022-08-19T04:39:03;48.33;;;30.02;;
74074;SDS011;62428;51.412;5.432;2022-08-19T04:41:32;48.45;;;30.20;;
74074;SDS011;62428;51.412;5.432;2022-08-19T04:44:17;48.15;;;29.98;;
74074;SDS011;62428;51.412;5.432;2022-08-19T04:46:43;48.33;;;29.00;;
74074;SDS011;62428;51.412;5.432;2022-08-19T04:49:09;50.25;;;30.27;;
74074;SDS011;62428;51.412;5.432;2022-08-19T04:51:35;51.03;;;29.93;;
74074;SDS011;62428;51.412;5.432;2022-08-19T04:54:02;47.60;;;29.45;;
74074;SDS011;62428;51.412;5.432;2022-08-19T04:56:28;47.08;;;29.98;;
74074;SDS011;62428;51.412;5.432;2022-08-19T04:58:54;48.90;;;29.77;;
74074;SDS011;62428;51.412;5.432;2022-08-19T05:01:22;49.85;;;30.08;;
74074;SDS011;62428;51.412;5.432;2022-08-19T05:03:53;52.17;;;31.48;;
74074;SDS011;62428;51.412;5.432;2022-08-19T05:06:19;53.15;;;30.98;;
74074;SDS011;62428;51.412;5.432;2022-08-19T05:08:46;57.08;;;32.30;;
74074;SDS011;62428;51.412;5.432;2022-08-19T05:11:17;49.57;;;30.17;;
74074;SDS011;62428;51.412;5.432;2022-08-19T05:13:50;52.67;;;30.85;;
74074;SDS011;62428;51.412;5.432;2022-08-19T05:16:17;48.83;;;29.50;;
74074;SDS011;62428;51.412;5.432;2022-08-19T05:18:45;51.40;;;30.33;;
74074;SDS011;62428;51.412;5.432;2022-08-19T05:21:29;50.95;;;30.20;;
74074;SDS011;62428;51.412;5.432;2022-08-19T05:24:14;54.73;;;30.63;;
74074;SDS011;62428;51.412;5.432;2022-08-19T05:26:41;56.53;;;32.20;;
74074;SDS011;62428;51.412;5.432;2022-08-19T05:29:11;50.38;;;30.15;;
74074;SDS011;62428;51.412;5.432;2022-08-19T05:31:37;51.95;;;31.55;;
74074;SDS011;62428;51.412;5.432;2022-08-19T05:34:03;53.67;;;30.20;;
74074;SDS011;62428;51.412;5.432;2022-08-19T05:36:33;56.30;;;31.30;;
74074;SDS011;62428;51.412;5.432;2022-08-19T05:39:00;51.05;;;30.63;;
74074;SDS011;62428;51.412;5.432;2022-08-19T05:41:26;53.78;;;30.08;;
74074;SDS011;62428;51.412;5.432;2022-08-19T05:43:54;56.95;;;31.40;;
74074;SDS011;62428;51.412;5.432;2022-08-19T05:46:21;54.83;;;31.93;;
74074;SDS011;62428;51.412;5.432;2022-08-19T05:48:47;53.20;;;30.80;;
74074;SDS011;62428;51.412;5.432;2022-08-19T05:51:13;54.80;;;31.70;;
74074;SDS011;62428;51.412;5.432;2022-08-19T05:53:39;53.93;;;32.23;;
74074;SDS011;62428;51.412;5.432;2022-08-19T05:56:05;55.75;;;31.80;;
74074;SDS011;62428;51.412;5.432;2022-08-19T05:58:31;57.53;;;30.97;;
74074;SDS011;62428;51.412;5.432;2022-08-19T06:00:57;59.05;;;31.55;;
74074;SDS011;62428;51.412;5.432;2022-08-19T06:03:29;60.75;;;33.10;;
74074;SDS011;62428;51.412;5.432;2022-08-19T06:05:54;59.03;;;31.37;;
74074;SDS011;62428;51.412;5.432;2022-08-19T06:08:20;59.43;;;31.60;;
74074;SDS011;62428;51.412;5.432;2022-08-19T06:10:45;58.40;;;31.27;;
74074;SDS011;62428;51.412;5.432;2022-08-19T06:13:10;57.50;;;31.07;;
74074;SDS011;62428;51.412;5.432;2022-08-19T06:15:36;57.77;;;30.60;;
74074;SDS011;62428;51.412;5.432;2022-08-19T06:18:01;60.83;;;31.57;;
74074;SDS011;62428;51.412;5.432;2022-08-19T06:20:26;57.93;;;30.73;;
74074;SDS011;62428;51.412;5.432;2022-08-19T06:22:52;58.60;;;31.97;;
74074;SDS011;62428;51.412;5.432;2022-08-19T06:25:17;57.55;;;30.92;;
74074;SDS011;62428;51.412;5.432;2022-08-19T06:27:43;57.23;;;29.67;;
74074;SDS011;62428;51.412;5.432;2022-08-19T06:30:09;58.08;;;30.17;;
74074;SDS011;62428;51.412;5.432;2022-08-19T06:32:36;53.57;;;29.03;;
74074;SDS011;62428;51.412;5.432;2022-08-19T06:35:01;54.13;;;29.73;;
74074;SDS011;62428;51.412;5.432;2022-08-19T06:37:27;55.27;;;29.37;;
74074;SDS011;62428;51.412;5.432;2022-08-19T06:39:53;52.77;;;28.17;;
74074;SDS011;62428;51.412;5.432;2022-08-19T06:42:18;57.65;;;29.10;;
74074;SDS011;62428;51.412;5.432;2022-08-19T06:44:44;55.30;;;28.93;;
74074;SDS011;62428;51.412;5.432;2022-08-19T06:47:12;56.53;;;28.63;;
74074;SDS011;62428;51.412;5.432;2022-08-19T06:49:39;52.05;;;28.75;;
74074;SDS011;62428;51.412;5.432;2022-08-19T06:52:05;57.43;;;29.57;;
74074;SDS011;62428;51.412;5.432;2022-08-19T06:54:31;53.50;;;30.17;;
74074;SDS011;62428;51.412;5.432;2022-08-19T06:56:57;49.88;;;27.63;;
74074;SDS011;62428;51.412;5.432;2022-08-19T06:59:25;51.37;;;28.13;;
74074;SDS011;62428;51.412;5.432;2022-08-19T07:01:54;49.65;;;27.75;;
74074;SDS011;62428;51.412;5.432;2022-08-19T07:04:22;49.45;;;26.70;;
74074;SDS011;62428;51.412;5.432;2022-08-19T07:06:49;48.33;;;25.52;;
74074;SDS011;62428;51.412;5.432;2022-08-19T07:09:17;47.17;;;24.63;;
74074;SDS011;62428;51.412;5.432;2022-08-19T07:11:47;45.33;;;24.93;;
74074;SDS011;62428;51.412;5.432;2022-08-19T07:14:14;40.78;;;24.08;;
74074;SDS011;62428;51.412;5.432;2022-08-19T07:16:42;48.80;;;24.42;;
74074;SDS011;62428;51.412;5.432;2022-08-19T07:19:09;43.95;;;22.45;;
74074;SDS011;62428;51.412;5.432;2022-08-19T07:21:35;43.70;;;23.03;;
74074;SDS011;62428;51.412;5.432;2022-08-19T07:24:00;46.57;;;21.67;;
74074;SDS011;62428;51.412;5.432;2022-08-19T07:26:27;42.43;;;21.27;;
74074;SDS011;62428;51.412;5.432;2022-08-19T07:28:55;37.63;;;19.77;;
74074;SDS011;62428;51.412;5.432;2022-08-19T07:31:23;38.95;;;20.23;;
74074;SDS011;62428;51.412;5.432;2022-08-19T07:33:50;43.97;;;21.98;;
74074;SDS011;62428;51.412;5.432;2022-08-19T07:36:18;40.53;;;21.10;;
74074;SDS011;62428;51.412;5.432;2022-08-19T07:38:47;42.20;;;20.35;;
74074;SDS011;62428;51.412;5.432;2022-08-19T07:41:16;40.20;;;22.05;;
74074;SDS011;62428;51.412;5.432;2022-08-19T07:43:44;34.88;;;20.25;;
74074;SDS011;62428;51.412;5.432;2022-08-19T07:46:10;38.58;;;18.75;;
74074;SDS011;62428;51.412;5.432;2022-08-19T07:48:38;41.50;;;18.67;;
74074;SDS011;62428;51.412;5.432;2022-08-19T07:51:06;37.42;;;19.08;;
74074;SDS011;62428;51.412;5.432;2022-08-19T07:53:33;39.15;;;19.48;;
74074;SDS011;62428;51.412;5.432;2022-08-19T07:55:59;33.03;;;17.67;;
74074;SDS011;62428;51.412;5.432;2022-08-19T07:58:29;36.60;;;19.60;;
74074;SDS011;62428;51.412;5.432;2022-08-19T08:00:56;41.97;;;22.00;;
74074;SDS011;62428;51.412;5.432;2022-08-19T08:03:22;43.50;;;24.33;;
74074;SDS011;62428;51.412;5.432;2022-08-19T08:06:11;42.35;;;24.70;;
74074;SDS011;62428;51.412;5.432;2022-08-19T08:08:57;45.13;;;27.25;;
74074;SDS011;62428;51.412;5.432;2022-08-19T08:11:43;46.03;;;29.02;;
74074;SDS011;62428;51.412;5.432;2022-08-19T08:14:15;53.33;;;31.17;;
74074;SDS011;62428;51.412;5.432;2022-08-19T08:16:42;48.58;;;28.30;;
74074;SDS011;62428;51.412;5.432;2022-08-19T08:19:09;47.72;;;28.85;;
74074;SDS011;62428;51.412;5.432;2022-08-19T08:21:34;50.92;;;29.50;;
74074;SDS011;62428;51.412;5.432;2022-08-19T08:24:00;46.90;;;28.67;;
74074;SDS011;62428;51.412;5.432;2022-08-19T08:26:25;51.57;;;29.03;;
74074;SDS011;62428;51.412;5.432;2022-08-19T08:28:51;42.60;;;26.57;;
74074;SDS011;62428;51.412;5.432;2022-08-19T08:31:18;47.40;;;28.23;;
74074;SDS011;62428;51.412;5.432;2022-08-19T08:33:44;45.60;;;29.02;;
74074;SDS011;62428;51.412;5.432;2022-08-19T08:36:10;43.92;;;29.88;;
74074;SDS011;62428;51.412;5.432;2022-08-19T08:38:39;45.90;;;29.03;;
74074;SDS011;62428;51.412;5.432;2022-08-19T08:44:11;51.53;;;32.22;;
74074;SDS011;62428;51.412;5.432;2022-08-19T08:46:51;46.25;;;31.13;;
74074;SDS011;62428;51.412;5.432;2022-08-19T08:49:36;50.08;;;33.13;;
74074;SDS011;62428;51.412;5.432;2022-08-19T08:52:25;49.13;;;29.90;;
74074;SDS011;62428;51.412;5.432;2022-08-19T08:54:55;43.40;;;29.65;;
74074;SDS011;62428;51.412;5.432;2022-08-19T08:57:27;41.65;;;26.65;;
74074;SDS011;62428;51.412;5.432;2022-08-19T09:00:00;39.15;;;26.00;;
74074;SDS011;62428;51.412;5.432;2022-08-19T09:02:30;34.35;;;25.02;;
74074;SDS011;62428;51.412;5.432;2022-08-19T09:04:55;38.97;;;24.90;;
74074;SDS011;62428;51.412;5.432;2022-08-19T09:10:15;30.30;;;20.63;;
74074;SDS011;62428;51.412;5.432;2022-08-19T09:12:51;39.58;;;23.85;;
74074;SDS011;62428;51.412;5.432;2022-08-19T09:15:29;38.03;;;23.50;;
74074;SDS011;62428;51.412;5.432;2022-08-19T09:18:09;42.75;;;27.95;;
74074;SDS011;62428;51.412;5.432;2022-08-19T09:20:36;41.40;;;26.63;;
74074;SDS011;62428;51.412;5.432;2022-08-19T09:23:02;37.85;;;24.67;;
74074;SDS011;62428;51.412;5.432;2022-08-19T09:25:27;31.90;;;20.77;;
74074;SDS011;62428;51.412;5.432;2022-08-19T09:27:53;34.30;;;20.40;;
74074;SDS011;62428;51.412;5.432;2022-08-19T09:30:24;36.40;;;20.75;;
74074;SDS011;62428;51.412;5.432;2022-08-19T09:32:52;32.40;;;19.95;;
74074;SDS011;62428;51.412;5.432;2022-08-19T09:35:19;37.38;;;21.80;;
74074;SDS011;62428;51.412;5.432;2022-08-19T09:37:48;39.72;;;21.65;;
74074;SDS011;62428;51.412;5.432;2022-08-19T09:40:15;32.53;;;21.10;;
74074;SDS011;62428;51.412;5.432;2022-08-19T09:42:41;37.40;;;22.10;;
74074;SDS011;62428;51.412;5.432;2022-08-19T09:45:08;32.63;;;19.35;;
74074;SDS011;62428;51.412;5.432;2022-08-19T09:47:35;31.02;;;18.25;;
74074;SDS011;62428;51.412;5.432;2022-08-19T09:50:03;29.80;;;18.02;;
74074;SDS011;62428;51.412;5.432;2022-08-19T09:52:30;24.63;;;15.50;;
74074;SDS011;62428;51.412;5.432;2022-08-19T09:54:56;29.13;;;16.15;;
74074;SDS011;62428;51.412;5.432;2022-08-19T09:57:21;27.93;;;15.17;;
74074;SDS011;62428;51.412;5.432;2022-08-19T09:59:47;28.63;;;16.57;;
74074;SDS011;62428;51.412;5.432;2022-08-19T10:02:12;27.63;;;16.05;;
74074;SDS011;62428;51.412;5.432;2022-08-19T10:04:39;30.03;;;14.50;;
74074;SDS011;62428;51.412;5.432;2022-08-19T10:07:23;26.17;;;14.88;;
74074;SDS011;62428;51.412;5.432;2022-08-19T10:09:49;27.42;;;14.00;;
74074;SDS011;62428;51.412;5.432;2022-08-19T10:12:14;26.00;;;13.50;;
74074;SDS011;62428;51.412;5.432;2022-08-19T10:14:40;26.50;;;13.27;;
74074;SDS011;62428;51.412;5.432;2022-08-19T10:17:05;26.53;;;13.83;;
74074;SDS011;62428;51.412;5.432;2022-08-19T10:19:31;21.83;;;12.33;;
74074;SDS011;62428;51.412;5.432;2022-08-19T10:22:02;22.60;;;12.35;;
74074;SDS011;62428;51.412;5.432;2022-08-19T10:24:29;25.63;;;12.37;;
74074;SDS011;62428;51.412;5.432;2022-08-19T10:26:55;23.02;;;11.75;;
74074;SDS011;62428;51.412;5.432;2022-08-19T10:29:22;21.35;;;11.02;;
74074;SDS011;62428;51.412;5.432;2022-08-19T10:31:47;24.67;;;12.00;;
74074;SDS011;62428;51.412;5.432;2022-08-19T10:34:13;23.13;;;11.57;;
74074;SDS011;62428;51.412;5.432;2022-08-19T10:36:38;23.97;;;12.23;;
74074;SDS011;62428;51.412;5.432;2022-08-19T10:39:05;18.40;;;10.73;;
74074;SDS011;62428;51.412;5.432;2022-08-19T10:41:35;21.80;;;10.65;;
74074;SDS011;62428;51.412;5.432;2022-08-19T10:44:04;26.15;;;14.05;;
74074;SDS011;62428;51.412;5.432;2022-08-19T10:46:36;27.17;;;16.03;;
74074;SDS011;62428;51.412;5.432;2022-08-19T10:49:04;25.50;;;15.20;;
74074;SDS011;62428;51.412;5.432;2022-08-19T10:51:30;30.10;;;17.35;;
74074;SDS011;62428;51.412;5.432;2022-08-19T10:54:15;34.67;;;19.48;;
74074;SDS011;62428;51.412;5.432;2022-08-19T10:56:41;34.47;;;19.17;;
74074;SDS011;62428;51.412;5.432;2022-08-19T10:59:17;30.40;;;17.60;;
74074;SDS011;62428;51.412;5.432;2022-08-19T11:01:45;31.80;;;17.63;;
74074;SDS011;62428;51.412;5.432;2022-08-19T11:04:11;31.23;;;18.57;;
74074;SDS011;62428;51.412;5.432;2022-08-19T11:06:39;29.60;;;17.33;;
74074;SDS011;62428;51.412;5.432;2022-08-19T11:09:07;29.80;;;16.35;;
74074;SDS011;62428;51.412;5.432;2022-08-19T11:11:33;31.75;;;17.50;;
74074;SDS011;62428;51.412;5.432;2022-08-19T11:14:04;29.45;;;17.58;;
74074;SDS011;62428;51.412;5.432;2022-08-19T11:16:30;36.93;;;17.40;;
74074;SDS011;62428;51.412;5.432;2022-08-19T11:18:56;28.80;;;16.35;;
74074;SDS011;62428;51.412;5.432;2022-08-19T11:21:27;28.45;;;15.90;;
74074;SDS011;62428;51.412;5.432;2022-08-19T11:23:57;30.38;;;16.90;;
74074;SDS011;62428;51.412;5.432;2022-08-19T11:26:25;34.13;;;18.07;;
74074;SDS011;62428;51.412;5.432;2022-08-19T11:28:51;28.55;;;17.02;;
74074;SDS011;62428;51.412;5.432;2022-08-19T11:31:20;34.70;;;18.10;;
74074;SDS011;62428;51.412;5.432;2022-08-19T11:33:48;33.42;;;18.30;;
74074;SDS011;62428;51.412;5.432;2022-08-19T11:36:18;32.85;;;19.98;;
74074;SDS011;62428;51.412;5.432;2022-08-19T11:38:45;31.80;;;19.77;;
74074;SDS011;62428;51.412;5.432;2022-08-19T11:41:13;35.63;;;20.73;;
74074;SDS011;62428;51.412;5.432;2022-08-19T11:43:39;36.08;;;22.05;;
74074;SDS011;62428;51.412;5.432;2022-08-19T11:46:06;35.80;;;20.43;;
74074;SDS011;62428;51.412;5.432;2022-08-19T11:48:33;33.92;;;20.15;;
74074;SDS011;62428;51.412;5.432;2022-08-19T11:51:02;29.00;;;18.90;;
74074;SDS011;62428;51.412;5.432;2022-08-19T11:53:31;29.40;;;18.65;;
74074;SDS011;62428;51.412;5.432;2022-08-19T11:55:57;31.03;;;17.60;;
74074;SDS011;62428;51.412;5.432;2022-08-19T11:58:23;25.00;;;16.70;;
74074;SDS011;62428;51.412;5.432;2022-08-19T12:00:49;31.45;;;18.05;;
74074;SDS011;62428;51.412;5.432;2022-08-19T12:03:15;30.43;;;16.83;;
74074;SDS011;62428;51.412;5.432;2022-08-19T12:05:40;29.43;;;17.63;;
74074;SDS011;62428;51.412;5.432;2022-08-19T12:08:06;33.00;;;18.35;;
74074;SDS011;62428;51.412;5.432;2022-08-19T12:10:32;29.20;;;18.70;;
74074;SDS011;62428;51.412;5.432;2022-08-19T12:12:59;34.80;;;19.73;;
74074;SDS011;62428;51.412;5.432;2022-08-19T12:15:24;29.67;;;18.08;;
74074;SDS011;62428;51.412;5.432;2022-08-19T12:17:52;32.97;;;20.33;;
74074;SDS011;62428;51.412;5.432;2022-08-19T12:20:20;32.60;;;19.25;;
74074;SDS011;62428;51.412;5.432;2022-08-19T12:22:45;28.87;;;19.07;;
74074;SDS011;62428;51.412;5.432;2022-08-19T12:25:11;31.08;;;19.13;;
74074;SDS011;62428;51.412;5.432;2022-08-19T12:27:37;31.47;;;18.97;;
74074;SDS011;62428;51.412;5.432;2022-08-19T12:30:04;28.35;;;18.08;;
74074;SDS011;62428;51.412;5.432;2022-08-19T12:32:31;30.85;;;18.70;;
74074;SDS011;62428;51.412;5.432;2022-08-19T12:34:57;33.47;;;17.23;;
74074;SDS011;62428;51.412;5.432;2022-08-19T12:37:22;27.13;;;16.30;;
74074;SDS011;62428;51.412;5.432;2022-08-19T12:39:47;29.27;;;17.20;;
74074;SDS011;62428;51.412;5.432;2022-08-19T12:42:13;27.40;;;16.50;;
74074;SDS011;62428;51.412;5.432;2022-08-19T12:44:40;25.80;;;14.95;;
74074;SDS011;62428;51.412;5.432;2022-08-19T12:47:07;25.27;;;14.23;;
74074;SDS011;62428;51.412;5.432;2022-08-19T12:49:33;22.60;;;13.45;;
74074;SDS011;62428;51.412;5.432;2022-08-19T12:52:01;20.23;;;11.27;;
74074;SDS011;62428;51.412;5.432;2022-08-19T12:54:30;16.93;;;10.77;;
74074;SDS011;62428;51.412;5.432;2022-08-19T12:56:57;17.77;;;10.50;;
74074;SDS011;62428;51.412;5.432;2022-08-19T12:59:23;18.33;;;10.75;;
74074;SDS011;62428;51.412;5.432;2022-08-19T13:01:48;20.73;;;10.17;;
74074;SDS011;62428;51.412;5.432;2022-08-19T13:04:14;16.33;;;10.37;;
74074;SDS011;62428;51.412;5.432;2022-08-19T13:06:40;17.67;;;9.85;;
74074;SDS011;62428;51.412;5.432;2022-08-19T13:09:05;18.53;;;9.80;;
74074;SDS011;62428;51.412;5.432;2022-08-19T13:11:31;16.63;;;9.80;;
74074;SDS011;62428;51.412;5.432;2022-08-19T13:13:59;17.50;;;10.90;;
74074;SDS011;62428;51.412;5.432;2022-08-19T13:16:25;18.33;;;11.57;;
74074;SDS011;62428;51.412;5.432;2022-08-19T13:18:52;17.98;;;12.00;;
74074;SDS011;62428;51.412;5.432;2022-08-19T13:21:19;16.10;;;10.73;;
74074;SDS011;62428;51.412;5.432;2022-08-19T13:23:46;17.80;;;11.07;;
74074;SDS011;62428;51.412;5.432;2022-08-19T13:26:11;16.07;;;10.40;;
74074;SDS011;62428;51.412;5.432;2022-08-19T13:28:38;19.83;;;11.43;;
74074;SDS011;62428;51.412;5.432;2022-08-19T13:31:24;19.50;;;11.05;;
74074;SDS011;62428;51.412;5.432;2022-08-19T13:34:10;16.70;;;11.13;;
74074;SDS011;62428;51.412;5.432;2022-08-19T13:36:36;16.02;;;10.20;;
74074;SDS011;62428;51.412;5.432;2022-08-19T13:39:02;13.25;;;8.85;;
74074;SDS011;62428;51.412;5.432;2022-08-19T13:41:28;15.10;;;9.63;;
74074;SDS011;62428;51.412;5.432;2022-08-19T13:43:54;17.47;;;9.13;;
74074;SDS011;62428;51.412;5.432;2022-08-19T13:46:19;13.82;;;8.68;;
74074;SDS011;62428;51.412;5.432;2022-08-19T13:48:46;13.97;;;9.33;;
74074;SDS011;62428;51.412;5.432;2022-08-19T13:51:13;13.15;;;8.70;;
74074;SDS011;62428;51.412;5.432;2022-08-19T13:53:41;17.20;;;9.30;;
74074;SDS011;62428;51.412;5.432;2022-08-19T13:56:08;17.10;;;10.03;;
74074;SDS011;62428;51.412;5.432;2022-08-19T13:58:35;16.20;;;9.57;;
74074;SDS011;62428;51.412;5.432;2022-08-19T14:01:02;15.25;;;10.00;;
74074;SDS011;62428;51.412;5.432;2022-08-19T14:03:28;13.23;;;8.88;;
74074;SDS011;62428;51.412;5.432;2022-08-19T14:05:53;14.27;;;9.10;;
74074;SDS011;62428;51.412;5.432;2022-08-19T14:08:19;14.50;;;8.80;;
74074;SDS011;62428;51.412;5.432;2022-08-19T14:10:44;16.38;;;9.85;;
74074;SDS011;62428;51.412;5.432;2022-08-19T14:13:10;17.10;;;9.33;;
74074;SDS011;62428;51.412;5.432;2022-08-19T14:15:39;13.90;;;9.50;;
74074;SDS011;62428;51.412;5.432;2022-08-19T14:18:05;10.93;;;7.43;;
74074;SDS011;62428;51.412;5.432;2022-08-19T14:20:30;11.90;;;7.22;;
74074;SDS011;62428;51.412;5.432;2022-08-19T14:22:59;12.43;;;7.57;;
74074;SDS011;62428;51.412;5.432;2022-08-19T14:25:26;14.95;;;8.00;;
74074;SDS011;62428;51.412;5.432;2022-08-19T14:27:53;11.27;;;7.53;;
74074;SDS011;62428;51.412;5.432;2022-08-19T14:30:21;7.53;;;5.45;;
74074;SDS011;62428;51.412;5.432;2022-08-19T14:32:53;9.20;;;6.50;;